Time;durP1;ratioP1;P1;durP2;ratioP2;P2;SDS_P1;SDS_P2;PMS_P1;PMS_P2;Temp;Humidity;BMP_temperature;BMP_pressure;BME280_temperature;BME280_humidity;BME280_pressure;Samples;Min_cycle;Max_cycle;Signal;HPM_P1;HPM_P2
2024/03/09 00:00:42;;;;;;;46.40;30.97;;;;;;;;;;5082578;28;20456;-64
2024/03/09 00:03:09;;;;;;;44.77;29.73;;;;;;;;;;5081276;28;20458;-64
2024/03/09 00:05:36;;;;;;;41.80;29.93;;;;;;;;;;5080970;28;20483;-64
2024/03/09 00:08:03;;;;;;;43.07;30.53;;;;;;;;;;5079721;28;20484;-64
2024/03/09 00:10:30;;;;;;;39.57;29.33;;;;;;;;;;5080440;28;21056;-63
2024/03/09 00:12:57;;;;;;;43.83;29.37;;;;;;;;;;5079863;28;20520;-64
2024/03/09 00:15:24;;;;;;;48.93;31.47;;;;;;;;;;5079397;28;20471;-64
2024/03/09 00:17:52;;;;;;;47.07;31.33;;;;;;;;;;5080775;28;20474;-63
2024/03/09 00:20:21;;;;;;;40.97;29.40;;;;;;;;;;5080377;28;20471;-63
2024/03/09 00:22:48;;;;;;;42.80;30.57;;;;;;;;;;5077807;28;20543;-63
2024/03/09 00:25:15;;;;;;;50.67;31.17;;;;;;;;;;5081923;28;20524;-64
2024/03/09 00:27:41;;;;;;;48.10;31.70;;;;;;;;;;5080296;28;20452;-63
2024/03/09 00:30:13;;;;;;;43.43;31.47;;;;;;;;;;5076789;28;20467;-63
2024/03/09 00:32:39;;;;;;;46.13;32.97;;;;;;;;;;5078058;28;20505;-63
2024/03/09 00:35:08;;;;;;;46.83;29.93;;;;;;;;;;5073712;28;20513;-63
2024/03/09 00:37:35;;;;;;;49.07;32.17;;;;;;;;;;5079857;28;20476;-63
2024/03/09 00:40:04;;;;;;;47.27;31.93;;;;;;;;;;5079564;28;20448;-63
2024/03/09 00:42:30;;;;;;;42.97;28.93;;;;;;;;;;5084237;28;20467;-64
2024/03/09 00:44:56;;;;;;;47.90;31.40;;;;;;;;;;5077112;28;20484;-65
2024/03/09 00:47:23;;;;;;;44.17;30.13;;;;;;;;;;5080157;28;20490;-65
2024/03/09 00:49:49;;;;;;;50.40;31.70;;;;;;;;;;5079387;28;20911;-64
2024/03/09 00:52:19;;;;;;;46.60;30.73;;;;;;;;;;5080373;28;20470;-64
2024/03/09 00:54:45;;;;;;;49.33;31.73;;;;;;;;;;5082747;28;20467;-64
2024/03/09 00:57:13;;;;;;;48.43;30.93;;;;;;;;;;5077530;28;21041;-64
2024/03/09 00:59:41;;;;;;;40.90;30.90;;;;;;;;;;5079384;28;20458;-64
2024/03/09 01:02:08;;;;;;;42.37;30.37;;;;;;;;;;5076026;28;20452;-64
2024/03/09 01:04:34;;;;;;;43.57;29.00;;;;;;;;;;5075157;28;20501;-64
2024/03/09 01:07:00;;;;;;;42.87;30.47;;;;;;;;;;5078123;28;20455;-64
2024/03/09 01:09:28;;;;;;;45.80;31.27;;;;;;;;;;5075600;28;20510;-63
2024/03/09 01:11:55;;;;;;;43.10;29.23;;;;;;;;;;5078378;28;20491;-64
2024/03/09 01:14:23;;;;;;;44.17;30.67;;;;;;;;;;5077295;28;20496;-63
2024/03/09 01:16:50;;;;;;;41.87;29.23;;;;;;;;;;5079136;28;20928;-63
2024/03/09 01:19:18;;;;;;;44.13;28.37;;;;;;;;;;5079692;28;20535;-63
2024/03/09 01:21:46;;;;;;;45.67;31.37;;;;;;;;;;5077783;28;20460;-62
2024/03/09 01:24:12;;;;;;;42.70;29.80;;;;;;;;;;5081608;28;20850;-63
2024/03/09 01:26:40;;;;;;;42.60;29.77;;;;;;;;;;5070391;28;21027;-63
2024/03/09 01:29:07;;;;;;;48.67;31.97;;;;;;;;;;5079369;28;20912;-63
2024/03/09 01:31:34;;;;;;;48.27;31.03;;;;;;;;;;5078683;28;20863;-63
2024/03/09 01:34:00;;;;;;;44.40;29.63;;;;;;;;;;5078130;28;20459;-63
2024/03/09 01:36:27;;;;;;;48.10;31.93;;;;;;;;;;5078440;28;20487;-63
2024/03/09 01:38:54;;;;;;;42.20;30.00;;;;;;;;;;5076790;28;20452;-63
2024/03/09 01:41:22;;;;;;;45.57;30.27;;;;;;;;;;5079827;28;20446;-62
2024/03/09 01:43:49;;;;;;;42.93;28.90;;;;;;;;;;5079071;28;20476;-63
2024/03/09 01:46:17;;;;;;;44.07;30.90;;;;;;;;;;5077555;28;20948;-63
2024/03/09 01:48:44;;;;;;;38.23;26.97;;;;;;;;;;5079546;28;20480;-66
2024/03/09 01:51:11;;;;;;;41.20;28.30;;;;;;;;;;5077345;28;20452;-63
2024/03/09 01:53:39;;;;;;;42.40;29.30;;;;;;;;;;5077321;28;20636;-66
2024/03/09 01:56:11;;;;;;;44.73;30.30;;;;;;;;;;5079996;28;20448;-63
2024/03/09 01:58:39;;;;;;;39.00;28.57;;;;;;;;;;5079045;28;20495;-64
2024/03/09 02:01:21;;;;;;;44.17;29.73;;;;;;;;;;5077861;28;20945;-63
2024/03/09 02:03:52;;;;;;;38.27;26.57;;;;;;;;;;5076730;28;20460;-63
2024/03/09 02:06:18;;;;;;;39.60;28.13;;;;;;;;;;5079473;28;20444;-63
2024/03/09 02:08:44;;;;;;;43.20;28.57;;;;;;;;;;5077061;28;20513;-64
2024/03/09 02:11:11;;;;;;;38.70;27.90;;;;;;;;;;5080968;28;20471;-64
2024/03/09 02:13:37;;;;;;;41.13;28.43;;;;;;;;;;5078548;28;20471;-63
2024/03/09 02:16:04;;;;;;;41.13;28.50;;;;;;;;;;5084586;28;20448;-64
2024/03/09 02:18:33;;;;;;;39.03;28.57;;;;;;;;;;5083067;28;20543;-64
2024/03/09 02:21:00;;;;;;;40.20;26.77;;;;;;;;;;5083245;28;20464;-63
2024/03/09 02:23:30;;;;;;;38.90;28.90;;;;;;;;;;5079531;28;20460;-64
2024/03/09 02:25:59;;;;;;;38.23;27.67;;;;;;;;;;5079864;28;21030;-64
2024/03/09 02:28:27;;;;;;;41.30;27.93;;;;;;;;;;5082483;28;21358;-64
2024/03/09 02:30:54;;;;;;;41.57;28.50;;;;;;;;;;5076813;28;20455;-64
2024/03/09 02:33:21;;;;;;;45.27;30.17;;;;;;;;;;5079600;28;20459;-64
2024/03/09 02:35:47;;;;;;;42.23;29.10;;;;;;;;;;5082873;28;20498;-64
2024/03/09 02:38:14;;;;;;;40.13;28.23;;;;;;;;;;5074265;28;20448;-64
2024/03/09 02:40:40;;;;;;;41.00;29.47;;;;;;;;;;5077897;28;20458;-64
2024/03/09 02:43:11;;;;;;;41.40;29.80;;;;;;;;;;5080003;28;20447;-64
2024/03/09 02:45:38;;;;;;;42.43;29.53;;;;;;;;;;5076100;28;20447;-64
2024/03/09 02:48:05;;;;;;;40.00;28.10;;;;;;;;;;5077676;28;20538;-63
2024/03/09 02:50:31;;;;;;;46.37;30.77;;;;;;;;;;5073292;28;20503;-64
2024/03/09 02:53:00;;;;;;;36.40;27.50;;;;;;;;;;5071462;28;20482;-64
2024/03/09 02:55:27;;;;;;;37.23;27.77;;;;;;;;;;5077184;28;20474;-64
2024/03/09 02:57:53;;;;;;;42.10;29.80;;;;;;;;;;5071220;28;20494;-64
2024/03/09 03:00:23;;;;;;;43.40;29.20;;;;;;;;;;5077418;28;20448;-64
2024/03/09 03:05:35;;;;;;;40.83;27.93;;;;;;;;;;5080418;28;20466;-63
2024/03/09 03:08:01;;;;;;;36.87;26.30;;;;;;;;;;5076098;28;20499;-63
2024/03/09 03:10:28;;;;;;;37.97;27.90;;;;;;;;;;5083108;28;20504;-63
2024/03/09 03:12:54;;;;;;;42.20;28.13;;;;;;;;;;5075920;28;20526;-63
2024/03/09 03:15:22;;;;;;;45.40;29.27;;;;;;;;;;5077392;28;20452;-63
2024/03/09 03:17:48;;;;;;;38.90;27.30;;;;;;;;;;5074311;28;20464;-64
2024/03/09 03:20:16;;;;;;;37.23;26.47;;;;;;;;;;5075669;28;20483;-63
2024/03/09 03:22:45;;;;;;;41.30;27.67;;;;;;;;;;5076594;28;20478;-63
2024/03/09 03:25:11;;;;;;;36.53;25.80;;;;;;;;;;5077586;28;20459;-63
2024/03/09 03:27:40;;;;;;;37.57;26.70;;;;;;;;;;5079680;28;20444;-64
2024/03/09 03:30:09;;;;;;;37.63;27.47;;;;;;;;;;5074525;28;20478;-64
2024/03/09 03:32:37;;;;;;;37.67;28.13;;;;;;;;;;5075032;28;20451;-64
2024/03/09 03:35:04;;;;;;;42.13;29.10;;;;;;;;;;5071869;28;20943;-64
2024/03/09 03:37:31;;;;;;;40.70;27.20;;;;;;;;;;5076558;28;20439;-64
2024/03/09 03:39:58;;;;;;;37.53;27.63;;;;;;;;;;5085378;28;20494;-63
2024/03/09 03:42:26;;;;;;;38.50;27.40;;;;;;;;;;5073915;28;20465;-63
2024/03/09 03:44:52;;;;;;;36.93;27.73;;;;;;;;;;5076365;28;20487;-62
2024/03/09 03:47:19;;;;;;;38.20;27.47;;;;;;;;;;5072264;28;21040;-62
2024/03/09 03:49:46;;;;;;;38.20;26.77;;;;;;;;;;5070865;28;20471;-63
2024/03/09 03:52:13;;;;;;;37.73;27.33;;;;;;;;;;5084834;28;20814;-63
2024/03/09 03:54:40;;;;;;;40.87;28.27;;;;;;;;;;5076027;28;20474;-63
2024/03/09 03:57:07;;;;;;;35.80;27.80;;;;;;;;;;5073645;28;20474;-63
2024/03/09 03:59:34;;;;;;;44.07;29.13;;;;;;;;;;5077737;28;20440;-63
2024/03/09 04:02:00;;;;;;;40.87;27.33;;;;;;;;;;5084093;28;20452;-63
2024/03/09 04:04:27;;;;;;;37.63;25.47;;;;;;;;;;5077855;28;20467;-63
2024/03/09 04:06:55;;;;;;;37.63;26.20;;;;;;;;;;5074425;28;20463;-63
2024/03/09 04:09:21;;;;;;;35.87;25.13;;;;;;;;;;5073936;28;20583;-63
2024/03/09 04:11:49;;;;;;;35.27;27.57;;;;;;;;;;5078586;28;20494;-63
2024/03/09 04:14:16;;;;;;;35.70;25.20;;;;;;;;;;5066748;28;20560;-64
2024/03/09 04:16:43;;;;;;;42.70;27.20;;;;;;;;;;5086450;28;20532;-63
2024/03/09 04:19:10;;;;;;;38.80;26.03;;;;;;;;;;5078601;28;20478;-63
2024/03/09 04:21:38;;;;;;;38.70;26.40;;;;;;;;;;5077000;28;20487;-63
2024/03/09 04:24:09;;;;;;;39.13;26.97;;;;;;;;;;5074325;28;20463;-63
2024/03/09 04:26:36;;;;;;;36.03;26.03;;;;;;;;;;5073963;28;20443;-64
2024/03/09 04:29:02;;;;;;;39.90;26.50;;;;;;;;;;5076060;28;21013;-63
2024/03/09 04:31:32;;;;;;;36.43;25.67;;;;;;;;;;5074111;28;20449;-64
2024/03/09 04:34:01;;;;;;;37.00;25.77;;;;;;;;;;5066855;28;20444;-63
2024/03/09 04:36:29;;;;;;;39.13;28.20;;;;;;;;;;5077072;28;20563;-63
2024/03/09 04:38:59;;;;;;;39.40;27.10;;;;;;;;;;5067886;28;20464;-63
2024/03/09 04:41:28;;;;;;;37.57;27.10;;;;;;;;;;5076680;28;20452;-64
2024/03/09 04:43:54;;;;;;;36.07;25.53;;;;;;;;;;5073582;28;20505;-63
2024/03/09 04:46:21;;;;;;;36.77;27.00;;;;;;;;;;5073520;28;20475;-63
2024/03/09 04:48:47;;;;;;;37.10;26.87;;;;;;;;;;5083036;28;20524;-63
2024/03/09 04:51:14;;;;;;;46.20;27.23;;;;;;;;;;5079154;28;20486;-63
2024/03/09 04:53:41;;;;;;;41.10;25.93;;;;;;;;;;5075438;28;20496;-63
2024/03/09 04:56:07;;;;;;;36.10;25.60;;;;;;;;;;5073689;28;20451;-63
2024/03/09 04:58:36;;;;;;;36.73;26.20;;;;;;;;;;5064634;28;20523;-63
2024/03/09 05:01:02;;;;;;;48.30;27.77;;;;;;;;;;5059077;28;20808;-62
2024/03/09 05:03:29;;;;;;;39.07;26.70;;;;;;;;;;5058286;28;20455;-63
2024/03/09 05:05:55;;;;;;;43.83;26.30;;;;;;;;;;5059927;28;20476;-63
2024/03/09 05:08:22;;;;;;;39.07;28.43;;;;;;;;;;5058449;28;22629;-63
2024/03/09 05:10:48;;;;;;;41.47;27.67;;;;;;;;;;5056128;28;20528;-63
2024/03/09 05:13:14;;;;;;;38.47;26.10;;;;;;;;;;5059107;28;20477;-63
2024/03/09 05:15:42;;;;;;;43.30;27.33;;;;;;;;;;5057553;28;20539;-63
2024/03/09 05:18:11;;;;;;;41.77;27.73;;;;;;;;;;5056577;28;20460;-63
2024/03/09 05:20:37;;;;;;;40.20;26.27;;;;;;;;;;5059187;28;20437;-63
2024/03/09 05:23:06;;;;;;;45.20;29.83;;;;;;;;;;5058815;28;20483;-63
2024/03/09 05:25:33;;;;;;;43.23;25.93;;;;;;;;;;5050438;28;20460;-63
2024/03/09 05:28:00;;;;;;;40.17;27.67;;;;;;;;;;5054403;28;20476;-63
2024/03/09 05:30:28;;;;;;;40.07;27.77;;;;;;;;;;5058501;28;20530;-62
2024/03/09 05:32:57;;;;;;;38.50;25.70;;;;;;;;;;5054711;28;20488;-64
2024/03/09 05:35:26;;;;;;;44.73;27.13;;;;;;;;;;5059700;28;20468;-63
2024/03/09 05:37:52;;;;;;;41.33;26.40;;;;;;;;;;5058767;28;20441;-64
2024/03/09 05:40:19;;;;;;;39.93;27.93;;;;;;;;;;5056994;28;21029;-64
2024/03/09 05:42:45;;;;;;;37.93;26.17;;;;;;;;;;5059263;28;20942;-64
2024/03/09 05:45:18;;;;;;;46.23;28.50;;;;;;;;;;5053974;28;20457;-64
2024/03/09 05:47:48;;;;;;;39.97;28.07;;;;;;;;;;5058582;28;20456;-64
2024/03/09 05:50:16;;;;;;;38.83;26.67;;;;;;;;;;5063226;28;20483;-63
2024/03/09 05:52:44;;;;;;;37.80;24.97;;;;;;;;;;5057705;28;20451;-62
2024/03/09 05:55:11;;;;;;;35.67;26.93;;;;;;;;;;5057623;28;20453;-63
2024/03/09 05:57:39;;;;;;;40.13;27.17;;;;;;;;;;5064134;28;20482;-63
2024/03/09 06:00:07;;;;;;;39.00;26.20;;;;;;;;;;5077456;28;20451;-63
2024/03/09 06:02:39;;;;;;;37.90;26.53;;;;;;;;;;5070735;28;20471;-64
2024/03/09 06:05:07;;;;;;;37.03;26.73;;;;;;;;;;5078390;28;20452;-63
2024/03/09 06:07:37;;;;;;;41.10;27.50;;;;;;;;;;5078449;28;20436;-63
2024/03/09 06:10:04;;;;;;;41.03;26.47;;;;;;;;;;5076430;28;20488;-64
2024/03/09 06:12:30;;;;;;;40.70;27.97;;;;;;;;;;5077175;28;20471;-63
2024/03/09 06:14:56;;;;;;;37.40;26.27;;;;;;;;;;5079184;28;20482;-64
2024/03/09 06:17:23;;;;;;;40.43;27.50;;;;;;;;;;5077501;28;20567;-64
2024/03/09 06:19:50;;;;;;;42.53;27.03;;;;;;;;;;5074349;28;20535;-64
2024/03/09 06:22:18;;;;;;;37.53;25.43;;;;;;;;;;5081284;28;20468;-64
2024/03/09 06:24:46;;;;;;;39.30;26.70;;;;;;;;;;5073230;28;20464;-64
2024/03/09 06:27:13;;;;;;;41.43;27.70;;;;;;;;;;5077561;28;21079;-64
2024/03/09 06:29:41;;;;;;;40.60;26.83;;;;;;;;;;5079426;28;20474;-64
2024/03/09 06:32:07;;;;;;;41.37;26.87;;;;;;;;;;5077789;28;20479;-64
2024/03/09 06:34:34;;;;;;;39.20;26.47;;;;;;;;;;5076252;28;20467;-64
2024/03/09 06:37:00;;;;;;;37.37;25.90;;;;;;;;;;5077872;28;20435;-64
2024/03/09 06:39:30;;;;;;;40.40;26.57;;;;;;;;;;5076108;28;20486;-64
2024/03/09 06:41:58;;;;;;;41.00;27.53;;;;;;;;;;5077069;28;20441;-64
2024/03/09 06:44:25;;;;;;;34.10;25.37;;;;;;;;;;5076946;28;20486;-65
2024/03/09 06:46:52;;;;;;;32.53;25.00;;;;;;;;;;5077173;28;20866;-63
2024/03/09 06:49:18;;;;;;;35.20;26.07;;;;;;;;;;5077010;28;20564;-64
2024/03/09 06:51:45;;;;;;;29.20;24.43;;;;;;;;;;5076228;28;20498;-64
2024/03/09 06:54:12;;;;;;;31.93;23.57;;;;;;;;;;5074352;28;20451;-64
2024/03/09 06:56:38;;;;;;;30.90;25.83;;;;;;;;;;5077885;28;20452;-64
2024/03/09 06:59:06;;;;;;;30.93;23.07;;;;;;;;;;5077965;28;21683;-64
2024/03/09 07:01:34;;;;;;;24.20;21.03;;;;;;;;;;5075612;28;21017;-64
2024/03/09 07:04:03;;;;;;;26.30;20.80;;;;;;;;;;5068270;28;20976;-64
2024/03/09 07:06:29;;;;;;;27.70;22.60;;;;;;;;;;5075297;28;20451;-64
2024/03/09 07:08:57;;;;;;;25.43;21.57;;;;;;;;;;5073083;28;20477;-64
2024/03/09 07:11:25;;;;;;;28.67;22.70;;;;;;;;;;5076089;28;20570;-65
2024/03/09 07:13:51;;;;;;;26.70;22.77;;;;;;;;;;5074719;28;20447;-65
2024/03/09 07:16:19;;;;;;;25.53;22.20;;;;;;;;;;5076190;28;20475;-64
2024/03/09 07:18:46;;;;;;;25.03;21.87;;;;;;;;;;5074595;28;20464;-64
2024/03/09 07:21:13;;;;;;;26.03;22.73;;;;;;;;;;5076361;28;20451;-64
2024/03/09 07:23:40;;;;;;;27.30;22.67;;;;;;;;;;5074488;28;20448;-64
2024/03/09 07:26:07;;;;;;;25.57;22.47;;;;;;;;;;5075481;28;20480;-64
2024/03/09 07:28:35;;;;;;;25.00;21.50;;;;;;;;;;5066568;28;20445;-64
2024/03/09 07:31:01;;;;;;;27.20;22.00;;;;;;;;;;5074952;28;20495;-64
2024/03/09 07:33:29;;;;;;;29.20;23.50;;;;;;;;;;5075790;28;20440;-64
2024/03/09 07:35:56;;;;;;;27.37;22.10;;;;;;;;;;5071992;28;20481;-64
2024/03/09 07:38:23;;;;;;;24.43;21.60;;;;;;;;;;5076070;28;20452;-64
2024/03/09 07:40:50;;;;;;;24.30;21.70;;;;;;;;;;5071039;28;20472;-64
2024/03/09 07:43:18;;;;;;;22.70;20.20;;;;;;;;;;5072689;28;20539;-64
2024/03/09 07:45:44;;;;;;;26.63;22.10;;;;;;;;;;5073582;28;20460;-64
2024/03/09 07:48:14;;;;;;;24.17;21.60;;;;;;;;;;5076319;28;20459;-64
2024/03/09 07:50:43;;;;;;;25.90;21.97;;;;;;;;;;5070457;28;20472;-64
2024/03/09 07:53:09;;;;;;;25.33;19.57;;;;;;;;;;5070989;28;21145;-64
2024/03/09 07:55:35;;;;;;;25.87;20.83;;;;;;;;;;5070441;28;20471;-64
2024/03/09 07:58:01;;;;;;;26.10;20.67;;;;;;;;;;5069924;28;20492;-64
2024/03/09 08:00:28;;;;;;;23.97;20.90;;;;;;;;;;5074695;28;20236;-64
2024/03/09 08:02:55;;;;;;;24.60;20.10;;;;;;;;;;5072296;28;20520;-64
2024/03/09 08:05:22;;;;;;;22.53;20.00;;;;;;;;;;5071291;28;20482;-64
2024/03/09 08:07:51;;;;;;;24.07;21.43;;;;;;;;;;5074395;28;20467;-64
2024/03/09 08:10:18;;;;;;;23.97;21.30;;;;;;;;;;5077448;28;21251;-64
2024/03/09 08:12:45;;;;;;;23.23;20.33;;;;;;;;;;5073767;28;20459;-64
2024/03/09 08:15:12;;;;;;;27.13;21.57;;;;;;;;;;5076194;28;20451;-64
2024/03/09 08:17:39;;;;;;;23.80;20.70;;;;;;;;;;5073286;28;20467;-64
2024/03/09 08:20:07;;;;;;;22.50;20.10;;;;;;;;;;5076502;28;20447;-64
2024/03/09 08:22:34;;;;;;;23.80;21.20;;;;;;;;;;5078068;28;20483;-64
2024/03/09 08:25:06;;;;;;;26.07;21.57;;;;;;;;;;5077245;28;20527;-64
2024/03/09 08:27:33;;;;;;;25.30;20.30;;;;;;;;;;5077154;28;20504;-64
2024/03/09 08:29:59;;;;;;;24.00;20.00;;;;;;;;;;5072957;28;20448;-64
2024/03/09 08:32:26;;;;;;;25.60;19.50;;;;;;;;;;5078357;28;20471;-64
2024/03/09 08:34:52;;;;;;;22.53;20.13;;;;;;;;;;5074214;28;20453;-64
2024/03/09 08:37:19;;;;;;;26.03;21.30;;;;;;;;;;5075916;28;20487;-64
2024/03/09 08:39:46;;;;;;;22.77;19.57;;;;;;;;;;5075589;28;20854;-64
2024/03/09 08:42:14;;;;;;;22.43;19.93;;;;;;;;;;5077364;28;20467;-64
2024/03/09 08:44:41;;;;;;;21.17;18.87;;;;;;;;;;5072820;28;20472;-65
2024/03/09 08:47:09;;;;;;;24.67;19.70;;;;;;;;;;5080326;28;20452;-65
2024/03/09 08:49:36;;;;;;;22.47;18.37;;;;;;;;;;5079652;28;20451;-65
2024/03/09 08:52:02;;;;;;;22.03;19.83;;;;;;;;;;5074149;28;20472;-65
2024/03/09 08:54:31;;;;;;;21.43;19.20;;;;;;;;;;5071715;28;20483;-66
2024/03/09 08:56:58;;;;;;;21.73;19.40;;;;;;;;;;5073658;28;20459;-74
2024/03/09 08:59:26;;;;;;;22.30;19.63;;;;;;;;;;5070918;28;20567;-74
2024/03/09 09:01:53;;;;;;;26.27;19.93;;;;;;;;;;5072944;28;20452;-72
2024/03/09 09:04:20;;;;;;;23.80;19.80;;;;;;;;;;5076178;28;20448;-75
2024/03/09 09:06:46;;;;;;;22.50;19.23;;;;;;;;;;5076337;28;21026;-75
2024/03/09 09:09:24;;;;;;;23.20;20.47;;;;;;;;;;5078429;28;20484;-73
2024/03/09 09:11:51;;;;;;;21.73;19.53;;;;;;;;;;5060730;28;21216;-74
2024/03/09 09:14:18;;;;;;;21.70;18.77;;;;;;;;;;5068476;28;20471;-73
2024/03/09 09:16:46;;;;;;;25.30;19.33;;;;;;;;;;5066502;28;20448;-74
2024/03/09 09:19:13;;;;;;;22.67;19.87;;;;;;;;;;5070869;28;20523;-74
2024/03/09 09:21:39;;;;;;;22.70;19.53;;;;;;;;;;5076878;28;20482;-74
2024/03/09 09:24:06;;;;;;;20.50;18.30;;;;;;;;;;5077184;28;20495;-74
2024/03/09 09:26:33;;;;;;;25.40;20.70;;;;;;;;;;5079156;28;20486;-75
2024/03/09 09:28:59;;;;;;;20.43;17.93;;;;;;;;;;5079511;28;20455;-74
2024/03/09 09:31:27;;;;;;;21.60;18.80;;;;;;;;;;5076315;28;20568;-75
2024/03/09 09:33:54;;;;;;;23.37;18.53;;;;;;;;;;5078878;28;20459;-74
2024/03/09 09:36:21;;;;;;;25.03;19.00;;;;;;;;;;5077658;28;20444;-75
2024/03/09 09:38:48;;;;;;;20.70;18.40;;;;;;;;;;5079769;28;20463;-74
2024/03/09 09:41:16;;;;;;;20.83;18.03;;;;;;;;;;5079936;28;20854;-75
2024/03/09 09:43:43;;;;;;;20.90;18.67;;;;;;;;;;5081451;28;20461;-75
2024/03/09 09:46:12;;;;;;;21.17;18.37;;;;;;;;;;5075554;28;20519;-77
2024/03/09 09:48:38;;;;;;;21.57;18.80;;;;;;;;;;5070442;28;20491;-72
2024/03/09 09:51:06;;;;;;;22.73;18.73;;;;;;;;;;5078619;28;20540;-73
2024/03/09 09:53:32;;;;;;;22.23;19.60;;;;;;;;;;5070005;28;20480;-72
2024/03/09 09:55:59;;;;;;;25.90;19.63;;;;;;;;;;5077874;28;20451;-76
2024/03/09 09:58:26;;;;;;;21.63;19.30;;;;;;;;;;5075697;28;20233;-68
2024/03/09 10:00:53;;;;;;;21.53;18.60;;;;;;;;;;5078067;28;20493;-73
2024/03/09 10:03:19;;;;;;;20.17;18.13;;;;;;;;;;5079528;28;20506;-75
2024/03/09 10:05:46;;;;;;;20.97;18.77;;;;;;;;;;5074168;28;20460;-72
2024/03/09 10:08:14;;;;;;;22.33;20.00;;;;;;;;;;5073622;28;20471;-73
2024/03/09 10:10:43;;;;;;;20.23;18.13;;;;;;;;;;5078643;28;20605;-75
2024/03/09 10:13:10;;;;;;;19.80;17.73;;;;;;;;;;5066801;28;20490;-75
2024/03/09 10:15:38;;;;;;;20.23;18.00;;;;;;;;;;5078627;28;20487;-72
2024/03/09 10:18:05;;;;;;;20.47;17.87;;;;;;;;;;5078401;28;20488;-73
2024/03/09 10:20:32;;;;;;;20.83;18.70;;;;;;;;;;5071714;28;20474;-71
2024/03/09 10:23:01;;;;;;;20.13;18.13;;;;;;;;;;5078702;28;20891;-74
2024/03/09 10:25:30;;;;;;;20.70;17.40;;;;;;;;;;5075126;28;20987;-74
2024/03/09 10:27:58;;;;;;;19.07;17.07;;;;;;;;;;5073977;28;20444;-72
2024/03/09 10:30:25;;;;;;;19.80;18.00;;;;;;;;;;5078134;28;20543;-76
2024/03/09 10:32:52;;;;;;;17.37;15.50;;;;;;;;;;5078663;28;20479;-72
2024/03/09 10:35:19;;;;;;;19.83;17.60;;;;;;;;;;5078623;28;20456;-76
2024/03/09 10:37:46;;;;;;;19.10;17.13;;;;;;;;;;5074290;28;20494;-75
2024/03/09 10:40:13;;;;;;;21.47;18.20;;;;;;;;;;5072154;28;20539;-74
2024/03/09 10:42:43;;;;;;;20.57;18.40;;;;;;;;;;5066704;28;20484;-79
2024/03/09 10:45:13;;;;;;;20.20;17.67;;;;;;;;;;5071178;28;20456;-75
2024/03/09 10:47:41;;;;;;;20.37;16.93;;;;;;;;;;5078148;28;20476;-70
2024/03/09 10:50:10;;;;;;;24.67;16.80;;;;;;;;;;5077583;28;20506;-75
2024/03/09 10:52:41;;;;;;;20.03;17.77;;;;;;;;;;5078194;28;20487;-73
2024/03/09 10:55:10;;;;;;;20.07;18.00;;;;;;;;;;5077729;28;20456;-76
2024/03/09 10:57:39;;;;;;;19.63;17.47;;;;;;;;;;5077277;28;20511;-76
2024/03/09 11:00:12;;;;;;;17.90;15.80;;;;;;;;;;5075038;28;20459;-76
2024/03/09 11:02:40;;;;;;;18.03;16.00;;;;;;;;;;5076243;28;20509;-75
2024/03/09 11:05:08;;;;;;;20.17;18.00;;;;;;;;;;5075255;28;21115;-74
2024/03/09 11:07:35;;;;;;;18.77;16.80;;;;;;;;;;5074341;28;20454;-72
2024/03/09 11:10:05;;;;;;;19.77;17.30;;;;;;;;;;5077438;28;20460;-76
2024/03/09 11:12:32;;;;;;;19.43;17.43;;;;;;;;;;5077374;28;20507;-75
2024/03/09 11:14:59;;;;;;;17.77;15.83;;;;;;;;;;5078881;28;20487;-75
2024/03/09 11:17:34;;;;;;;19.57;17.47;;;;;;;;;;5077905;28;20506;-77
2024/03/09 11:20:01;;;;;;;19.10;16.67;;;;;;;;;;5071512;28;20448;-76
2024/03/09 11:22:39;;;;;;;18.50;15.40;;;;;;;;;;5077272;28;20472;-74
2024/03/09 11:25:10;;;;;;;17.60;15.80;;;;;;;;;;5073766;28;20554;-76
2024/03/09 11:27:38;;;;;;;18.60;16.70;;;;;;;;;;5080756;28;20454;-77
2024/03/09 11:30:06;;;;;;;18.63;16.60;;;;;;;;;;5078478;28;20501;-76
2024/03/09 11:32:36;;;;;;;18.73;16.83;;;;;;;;;;5079714;28;20504;-76
2024/03/09 11:35:21;;;;;;;21.40;18.33;;;;;;;;;;5077740;28;20830;-76
2024/03/09 11:37:49;;;;;;;22.80;18.40;;;;;;;;;;5077120;28;20443;-77
2024/03/09 11:40:17;;;;;;;22.43;18.30;;;;;;;;;;5073788;28;20486;-77
2024/03/09 11:42:44;;;;;;;22.30;18.87;;;;;;;;;;5069576;28;20478;-76
2024/03/09 11:45:12;;;;;;;20.17;18.17;;;;;;;;;;5074641;28;20463;-73
2024/03/09 11:47:40;;;;;;;18.73;16.83;;;;;;;;;;5074559;28;20468;-75
2024/03/09 11:50:07;;;;;;;21.00;18.90;;;;;;;;;;5077163;28;20539;-75
2024/03/09 11:52:34;;;;;;;18.90;16.90;;;;;;;;;;5077295;28;20519;-74
2024/03/09 11:55:02;;;;;;;20.50;17.37;;;;;;;;;;5079770;28;20491;-75
2024/03/09 11:57:29;;;;;;;21.80;19.50;;;;;;;;;;5078095;28;20587;-75
2024/03/09 11:59:57;;;;;;;20.90;18.90;;;;;;;;;;5082040;28;20457;-75
2024/03/09 12:02:24;;;;;;;19.03;17.10;;;;;;;;;;5083116;28;21051;-76
2024/03/09 12:04:56;;;;;;;19.57;16.90;;;;;;;;;;5084059;28;20460;-73
2024/03/09 12:07:23;;;;;;;18.83;16.87;;;;;;;;;;5075397;28;20472;-75
2024/03/09 12:09:49;;;;;;;20.87;18.77;;;;;;;;;;5083347;28;20499;-74
2024/03/09 12:12:16;;;;;;;18.57;16.40;;;;;;;;;;5083684;28;20480;-76
2024/03/09 12:14:43;;;;;;;20.23;16.87;;;;;;;;;;5083893;28;20486;-73
2024/03/09 12:17:10;;;;;;;18.97;16.40;;;;;;;;;;5083416;28;20526;-72
2024/03/09 12:19:36;;;;;;;20.90;17.17;;;;;;;;;;5083126;28;20450;-76
2024/03/09 12:22:05;;;;;;;18.20;16.40;;;;;;;;;;5083867;28;20438;-76
2024/03/09 12:24:31;;;;;;;20.97;17.83;;;;;;;;;;5077408;28;20460;-73
2024/03/09 12:26:58;;;;;;;20.10;17.90;;;;;;;;;;5079290;28;20452;-75
2024/03/09 12:29:24;;;;;;;20.63;18.53;;;;;;;;;;5078823;28;20483;-73
2024/03/09 12:31:51;;;;;;;18.00;16.20;;;;;;;;;;5083683;28;20932;-76
2024/03/09 12:34:17;;;;;;;20.53;17.17;;;;;;;;;;5081174;28;20451;-74
2024/03/09 12:36:50;;;;;;;19.20;17.30;;;;;;;;;;5083647;28;20452;-76
2024/03/09 12:39:18;;;;;;;19.77;16.33;;;;;;;;;;5082720;28;20538;-76
2024/03/09 12:41:49;;;;;;;19.40;17.30;;;;;;;;;;5081852;28;20451;-76
2024/03/09 12:44:16;;;;;;;18.23;16.37;;;;;;;;;;5083457;28;20455;-75
2024/03/09 12:46:43;;;;;;;20.80;18.60;;;;;;;;;;5080708;28;20456;-73
2024/03/09 12:49:11;;;;;;;23.17;18.20;;;;;;;;;;5083336;28;20452;-76
2024/03/09 12:51:39;;;;;;;18.93;17.13;;;;;;;;;;5079124;28;20478;-76
2024/03/09 12:54:08;;;;;;;17.60;15.80;;;;;;;;;;5083231;28;20451;-75
2024/03/09 12:56:36;;;;;;;18.77;16.80;;;;;;;;;;5082882;28;20465;-76
2024/03/09 12:59:04;;;;;;;18.93;15.70;;;;;;;;;;5083266;28;20515;-75
2024/03/09 13:01:31;;;;;;;17.03;15.33;;;;;;;;;;5083138;28;20448;-75
2024/03/09 13:03:58;;;;;;;17.33;15.67;;;;;;;;;;5075650;28;20452;-76
2024/03/09 13:06:25;;;;;;;16.67;14.90;;;;;;;;;;5087226;28;20833;-73
2024/03/09 13:08:52;;;;;;;15.73;14.10;;;;;;;;;;5077503;28;20942;-76
2024/03/09 13:11:20;;;;;;;16.43;14.77;;;;;;;;;;5079963;28;20482;-74
2024/03/09 13:13:48;;;;;;;16.90;14.40;;;;;;;;;;5079693;28;20472;-74
2024/03/09 13:16:16;;;;;;;18.40;15.97;;;;;;;;;;5079540;28;20466;-73
2024/03/09 13:18:43;;;;;;;21.60;16.07;;;;;;;;;;5079966;28;20520;-75
2024/03/09 13:21:10;;;;;;;17.23;15.53;;;;;;;;;;5079796;28;20456;-72
2024/03/09 13:23:36;;;;;;;19.23;17.23;;;;;;;;;;5074100;28;21347;-75
2024/03/09 13:26:03;;;;;;;17.93;16.10;;;;;;;;;;5078037;28;20956;-74
2024/03/09 13:28:31;;;;;;;19.43;16.47;;;;;;;;;;5079519;28;20479;-72
2024/03/09 13:31:03;;;;;;;18.97;17.07;;;;;;;;;;5080141;28;21128;-74
2024/03/09 13:33:33;;;;;;;16.97;15.37;;;;;;;;;;5079972;28;20555;-70
2024/03/09 13:35:59;;;;;;;21.03;16.70;;;;;;;;;;5079919;28;20452;-74
2024/03/09 13:38:27;;;;;;;19.93;15.83;;;;;;;;;;5079444;28;20503;-76
2024/03/09 13:40:53;;;;;;;18.50;16.23;;;;;;;;;;5079761;28;20468;-74
2024/03/09 13:43:20;;;;;;;17.77;15.90;;;;;;;;;;5078938;28;20438;-74
2024/03/09 13:45:50;;;;;;;18.30;16.50;;;;;;;;;;5078870;28;20471;-75
2024/03/09 13:48:18;;;;;;;18.10;16.23;;;;;;;;;;5073646;28;20455;-76
2024/03/09 13:50:45;;;;;;;19.73;16.27;;;;;;;;;;5079407;28;20452;-71
2024/03/09 13:53:11;;;;;;;17.83;16.00;;;;;;;;;;5078875;28;20487;-69
2024/03/09 13:55:39;;;;;;;17.60;15.80;;;;;;;;;;5078164;28;20490;-75
2024/03/09 13:58:05;;;;;;;18.90;16.23;;;;;;;;;;5078073;28;20525;-77
2024/03/09 14:00:32;;;;;;;20.50;17.17;;;;;;;;;;5079342;28;20440;-73
2024/03/09 14:02:58;;;;;;;16.80;15.00;;;;;;;;;;5078242;28;20448;-72
2024/03/09 14:05:26;;;;;;;16.77;14.97;;;;;;;;;;5074886;28;20784;-75
2024/03/09 14:07:56;;;;;;;16.93;15.33;;;;;;;;;;5079091;28;20452;-74
2024/03/09 14:10:23;;;;;;;16.47;14.77;;;;;;;;;;5078634;28;20495;-75
2024/03/09 14:12:50;;;;;;;17.67;15.90;;;;;;;;;;5079463;28;20484;-76
2024/03/09 14:15:21;;;;;;;17.83;16.10;;;;;;;;;;5085111;28;20459;-76
2024/03/09 14:17:48;;;;;;;17.90;16.17;;;;;;;;;;5075491;28;20514;-72
2024/03/09 14:20:16;;;;;;;17.93;16.23;;;;;;;;;;5075076;28;20904;-74